Time;durP1;ratioP1;P1;durP2;ratioP2;P2;SDS_P1;SDS_P2;PMS_P1;PMS_P2;Temp;Humidity;BMP_temperature;BMP_pressure;BME280_temperature;BME280_humidity;BME280_pressure;Samples;Min_cycle;Max_cycle;Signal;HPM_P1;HPM_P2
2023/08/17 00:01:50;;;;;;;0.88;0.80;;;23.80;60.60;;;;;;4898437;29;20092;-77
2023/08/17 00:04:16;;;;;;;1.25;1.08;;;23.80;60.60;;;;;;4882691;29;20039;-78
2023/08/17 00:06:42;;;;;;;1.23;0.98;;;23.80;60.60;;;;;;4899578;29;20037;-77
2023/08/17 00:09:09;;;;;;;1.33;0.90;;;23.80;60.60;;;;;;4899025;29;20052;-78
2023/08/17 00:11:36;;;;;;;2.03;0.90;;;23.70;60.60;;;;;;4898069;29;20033;-77
2023/08/17 00:14:02;;;;;;;1.13;0.88;;;23.80;60.70;;;;;;4882466;29;20036;-76
2023/08/17 00:16:28;;;;;;;1.52;0.98;;;23.70;60.70;;;;;;4897679;29;20060;-76
2023/08/17 00:18:54;;;;;;;1.23;1.00;;;23.70;60.70;;;;;;4882314;29;20064;-75
2023/08/17 00:21:19;;;;;;;1.45;0.80;;;23.70;60.70;;;;;;4897718;29;20069;-75
2023/08/17 00:23:45;;;;;;;1.10;0.85;;;23.70;60.80;;;;;;4913133;29;20405;-75
2023/08/17 00:26:11;;;;;;;1.15;1.05;;;23.60;60.70;;;;;;4882038;29;20031;-75
2023/08/17 00:28:37;;;;;;;1.25;1.05;;;23.60;60.80;;;;;;4913629;29;20127;-76
2023/08/17 00:31:03;;;;;;;1.20;0.88;;;23.60;60.80;;;;;;4898963;29;20059;-76
2023/08/17 00:33:29;;;;;;;1.13;0.80;;;23.60;60.80;;;;;;4897746;29;20563;-76
2023/08/17 00:35:55;;;;;;;1.15;0.88;;;23.60;60.90;;;;;;4898165;29;20060;-76
2023/08/17 00:38:21;;;;;;;1.00;0.93;;;23.50;60.80;;;;;;4897959;29;20064;-76
2023/08/17 00:40:47;;;;;;;1.20;0.98;;;23.50;60.90;;;;;;4897521;29;20071;-76
2023/08/17 00:43:12;;;;;;;0.85;0.80;;;23.50;60.90;;;;;;4882075;29;20060;-75
2023/08/17 00:45:39;;;;;;;0.90;0.80;;;23.50;60.90;;;;;;4897573;29;20428;-75
2023/08/17 00:48:07;;;;;;;1.27;0.93;;;23.40;60.90;;;;;;4898273;29;20040;-76
2023/08/17 00:50:35;;;;;;;1.45;1.10;;;23.50;61.00;;;;;;4898639;29;20064;-76
2023/08/17 00:53:01;;;;;;;1.42;0.95;;;23.40;60.90;;;;;;4913039;29;20040;-76
2023/08/17 00:55:28;;;;;;;1.10;1.00;;;23.40;60.90;;;;;;4897346;29;20379;-78
2023/08/17 00:57:56;;;;;;;1.00;0.90;;;23.40;61.00;;;;;;4897265;29;20025;-77
2023/08/17 01:00:25;;;;;;;1.40;1.00;;;23.40;61.00;;;;;;4898575;29;20465;-75
2023/08/17 01:02:51;;;;;;;1.85;1.10;;;23.40;61.00;;;;;;4898454;29;20043;-79
2023/08/17 01:05:17;;;;;;;1.25;0.90;;;23.30;61.00;;;;;;4897524;29;20044;-76
2023/08/17 01:07:43;;;;;;;0.98;0.80;;;23.30;61.10;;;;;;4896916;29;20044;-78
2023/08/17 01:10:09;;;;;;;1.20;1.10;;;23.30;61.10;;;;;;4897380;29;20036;-79
2023/08/17 01:12:42;;;;;;;0.98;0.98;;;23.20;61.10;;;;;;4897109;29;20513;-79
2023/08/17 01:15:16;;;;;;;1.30;1.02;;;23.30;61.20;;;;;;4897070;29;20081;-77
2023/08/17 01:17:54;;;;;;;1.23;0.90;;;23.20;61.20;;;;;;4898053;29;20051;-77
2023/08/17 01:20:22;;;;;;;1.35;1.00;;;23.20;61.30;;;;;;4896972;29;20330;-79
2023/08/17 01:22:50;;;;;;;1.83;1.10;;;23.20;61.30;;;;;;4898223;29;20044;-78
2023/08/17 01:25:16;;;;;;;1.27;0.90;;;23.10;61.30;;;;;;4898239;29;20103;-78
2023/08/17 01:27:44;;;;;;;1.13;0.88;;;23.10;61.40;;;;;;4896727;29;20096;-79
2023/08/17 01:30:15;;;;;;;1.20;1.10;;;23.10;61.40;;;;;;4896293;29;20123;-78
2023/08/17 01:32:48;;;;;;;1.15;0.90;;;23.10;61.50;;;;;;4897904;29;20033;-78
2023/08/17 01:35:36;;;;;;;1.15;0.93;;;23.00;61.40;;;;;;4897794;29;20068;-78
2023/08/17 01:38:09;;;;;;;0.85;0.82;;;23.00;61.60;;;;;;4900515;29;20060;-78
2023/08/17 01:40:35;;;;;;;0.98;0.90;;;23.00;61.60;;;;;;4916679;29;20071;-78
2023/08/17 01:43:02;;;;;;;1.50;1.00;;;22.90;61.50;;;;;;4902159;29;20056;-78
2023/08/17 01:45:28;;;;;;;1.02;0.98;;;23.00;61.70;;;;;;4900432;29;20039;-79
2023/08/17 01:47:55;;;;;;;1.90;1.20;;;22.90;61.60;;;;;;4902129;29;20040;-78
2023/08/17 01:50:21;;;;;;;1.38;1.10;;;22.90;61.70;;;;;;4902015;29;20032;-80
2023/08/17 01:52:52;;;;;;;1.10;1.00;;;22.90;61.70;;;;;;4916098;29;20036;-77
2023/08/17 01:55:21;;;;;;;1.23;1.10;;;22.80;61.70;;;;;;4900419;29;20096;-77
2023/08/17 01:57:46;;;;;;;1.35;1.25;;;22.80;61.70;;;;;;4901563;29;20032;-78
2023/08/17 02:00:13;;;;;;;1.38;1.20;;;22.80;61.80;;;;;;4884548;29;20375;-78
2023/08/17 02:02:42;;;;;;;1.38;0.95;;;22.70;61.70;;;;;;4900576;29;20053;-78
2023/08/17 02:05:08;;;;;;;1.02;0.90;;;22.70;61.80;;;;;;4900776;29;20088;-78
2023/08/17 02:07:34;;;;;;;1.85;1.10;;;22.70;61.80;;;;;;4900313;29;20036;-78
2023/08/17 02:09:59;;;;;;;1.38;1.08;;;22.70;61.80;;;;;;4885326;29;20040;-79
2023/08/17 02:12:25;;;;;;;1.58;1.17;;;22.70;61.90;;;;;;4900093;29;20044;-78
2023/08/17 02:14:51;;;;;;;1.98;1.25;;;22.70;61.90;;;;;;4900402;29;20148;-79
2023/08/17 02:17:18;;;;;;;1.40;0.98;;;22.60;61.90;;;;;;4901716;29;20120;-83
2023/08/17 02:19:44;;;;;;;2.88;1.00;;;22.60;62.00;;;;;;4900659;29;20033;-77
2023/08/17 02:22:11;;;;;;;1.48;1.08;;;22.60;62.00;;;;;;4884503;29;20033;-78
2023/08/17 02:24:36;;;;;;;1.92;0.98;;;22.60;62.10;;;;;;4900060;29;20037;-77
2023/08/17 02:27:03;;;;;;;1.27;1.10;;;22.60;62.10;;;;;;4901027;29;20033;-78
2023/08/17 02:29:28;;;;;;;1.58;0.98;;;22.50;62.00;;;;;;4900626;29;20362;-78
2023/08/17 02:31:54;;;;;;;1.80;1.05;;;22.50;62.10;;;;;;4900581;29;20040;-78
2023/08/17 02:34:20;;;;;;;1.38;0.95;;;22.50;62.10;;;;;;4900540;29;20040;-78
2023/08/17 02:36:46;;;;;;;1.02;0.90;;;22.50;62.10;;;;;;4900520;29;20060;-78
2023/08/17 02:39:11;;;;;;;0.85;0.85;;;22.40;62.10;;;;;;4884612;29;20363;-81
2023/08/17 02:41:37;;;;;;;1.08;0.93;;;22.40;62.10;;;;;;4915421;29;20052;-77
2023/08/17 02:44:03;;;;;;;1.85;1.08;;;22.40;62.20;;;;;;4899411;29;20084;-77
2023/08/17 02:46:29;;;;;;;0.90;0.90;;;22.30;62.20;;;;;;4899114;29;20025;-78
2023/08/17 02:48:55;;;;;;;0.90;0.80;;;22.30;62.20;;;;;;4915264;29;20501;-77
2023/08/17 02:51:20;;;;;;;1.02;0.82;;;22.30;62.20;;;;;;4900150;29;20424;-80
2023/08/17 02:53:46;;;;;;;1.00;0.95;;;22.30;62.20;;;;;;4899471;29;20454;-78
2023/08/17 02:56:12;;;;;;;2.28;1.30;;;22.30;62.20;;;;;;4899493;29;20554;-82
2023/08/17 02:58:41;;;;;;;1.10;1.00;;;22.20;62.20;;;;;;4899346;29;20037;-77
2023/08/17 03:01:08;;;;;;;1.48;1.25;;;22.20;62.40;;;;;;4900687;29;20109;-78
2023/08/17 03:03:34;;;;;;;1.13;0.90;;;22.20;62.30;;;;;;4899310;29;20024;-79
2023/08/17 03:06:00;;;;;;;1.27;1.10;;;22.20;62.40;;;;;;4883783;29;20036;-77
2023/08/17 03:08:25;;;;;;;1.02;0.98;;;22.10;62.40;;;;;;4883752;29;20037;-80
2023/08/17 03:10:52;;;;;;;1.45;0.95;;;22.10;62.40;;;;;;4914646;29;20045;-78
2023/08/17 03:13:18;;;;;;;1.77;1.20;;;22.10;62.40;;;;;;4883227;29;20040;-79
2023/08/17 03:15:44;;;;;;;1.23;0.88;;;22.10;62.40;;;;;;4899095;29;20051;-77
2023/08/17 03:18:10;;;;;;;1.13;1.02;;;22.10;62.50;;;;;;4898980;29;20370;-78
2023/08/17 03:20:37;;;;;;;1.45;1.00;;;22.10;62.50;;;;;;4883727;29;20104;-78
2023/08/17 03:23:07;;;;;;;1.02;0.90;;;22.00;62.50;;;;;;4899880;29;20430;-79
2023/08/17 03:25:33;;;;;;;1.00;0.90;;;22.00;62.50;;;;;;4899224;29;20056;-78
2023/08/17 03:28:00;;;;;;;1.17;1.00;;;22.00;62.50;;;;;;4898836;29;20039;-78
2023/08/17 03:30:26;;;;;;;0.90;0.88;;;22.00;62.60;;;;;;4883488;29;20060;-79
2023/08/17 03:32:52;;;;;;;1.17;0.90;;;22.00;62.50;;;;;;4867343;29;20029;-80
2023/08/17 03:35:18;;;;;;;1.13;1.00;;;22.00;62.60;;;;;;4898366;29;20055;-78
2023/08/17 03:37:45;;;;;;;1.33;1.13;;;21.90;62.60;;;;;;4898944;29;20367;-78
2023/08/17 03:40:11;;;;;;;1.00;0.90;;;21.90;62.60;;;;;;4898339;29;20029;-78
2023/08/17 03:42:36;;;;;;;1.33;1.05;;;21.90;62.60;;;;;;4898493;29;20056;-78
2023/08/17 03:45:03;;;;;;;1.15;1.05;;;21.90;62.60;;;;;;4883034;29;20040;-79
2023/08/17 03:47:29;;;;;;;1.83;1.02;;;21.90;62.70;;;;;;4899538;29;20028;-79
2023/08/17 03:49:55;;;;;;;1.05;0.95;;;21.80;62.70;;;;;;4898644;29;20036;-77
2023/08/17 03:52:21;;;;;;;1.65;1.00;;;21.80;62.70;;;;;;4898332;29;20128;-78
2023/08/17 03:54:47;;;;;;;0.93;0.80;;;21.80;62.70;;;;;;4914106;29;20072;-78
2023/08/17 03:57:13;;;;;;;1.13;0.90;;;21.80;62.80;;;;;;4898575;29;20123;-78
2023/08/17 03:59:39;;;;;;;1.08;0.90;;;21.80;62.80;;;;;;4897870;29;20554;-78
2023/08/17 04:02:05;;;;;;;1.15;1.00;;;21.80;62.80;;;;;;4898281;29;20051;-80
2023/08/17 04:04:31;;;;;;;2.30;1.10;;;21.70;62.80;;;;;;4898152;29;20037;-78
2023/08/17 04:06:57;;;;;;;0.80;0.80;;;21.70;62.90;;;;;;4898124;29;20055;-78
2023/08/17 04:09:23;;;;;;;1.50;1.20;;;21.70;62.90;;;;;;4898096;29;20124;-78
2023/08/17 04:11:49;;;;;;;0.90;0.90;;;21.60;62.80;;;;;;4882584;29;20123;-78
2023/08/17 04:14:14;;;;;;;1.30;0.93;;;21.60;62.80;;;;;;4883118;29;20045;-77
2023/08/17 04:16:41;;;;;;;2.20;1.15;;;21.60;62.90;;;;;;4913355;29;20504;-78
2023/08/17 04:19:07;;;;;;;1.55;1.15;;;21.60;62.90;;;;;;4914434;29;20107;-79
2023/08/17 04:21:34;;;;;;;1.30;1.00;;;21.50;62.90;;;;;;4882587;29;20028;-78
2023/08/17 04:24:00;;;;;;;1.13;1.00;;;21.50;62.90;;;;;;4913518;29;20044;-78
2023/08/17 04:26:25;;;;;;;1.75;1.00;;;21.50;62.90;;;;;;4913188;29;20033;-77
2023/08/17 04:28:51;;;;;;;1.10;1.00;;;21.50;63.00;;;;;;4897531;29;20127;-78
2023/08/17 04:31:17;;;;;;;1.20;1.10;;;21.50;63.00;;;;;;4897643;29;20040;-78
2023/08/17 04:33:45;;;;;;;1.55;1.20;;;21.40;63.00;;;;;;4882689;29;20037;-80
2023/08/17 04:36:12;;;;;;;2.13;1.20;;;21.40;63.00;;;;;;4913439;29;20045;-77
2023/08/17 04:38:38;;;;;;;1.83;1.00;;;21.40;63.00;;;;;;4897078;29;20056;-78
2023/08/17 04:41:04;;;;;;;1.80;1.27;;;21.40;63.10;;;;;;4898215;29;20037;-79
2023/08/17 04:43:31;;;;;;;1.52;1.02;;;21.40;63.10;;;;;;4881662;29;20173;-79
2023/08/17 04:45:56;;;;;;;1.50;1.10;;;21.40;63.10;;;;;;4881814;29;20111;-78
2023/08/17 04:48:23;;;;;;;1.52;0.93;;;21.40;63.10;;;;;;4897187;29;20047;-80
2023/08/17 04:50:52;;;;;;;1.38;0.95;;;21.30;63.10;;;;;;4897580;29;20045;-77
2023/08/17 04:53:18;;;;;;;2.33;1.10;;;21.30;63.20;;;;;;4881912;29;20071;-79
2023/08/17 04:55:43;;;;;;;1.40;0.90;;;21.30;63.10;;;;;;4897005;29;20037;-79
2023/08/17 04:58:10;;;;;;;1.20;1.10;;;21.30;63.20;;;;;;4897347;29;20398;-80
2023/08/17 05:00:37;;;;;;;1.10;1.00;;;21.20;63.10;;;;;;4897315;29;20040;-79
2023/08/17 05:03:04;;;;;;;1.55;1.10;;;21.20;63.20;;;;;;4896989;29;20103;-78
2023/08/17 05:05:35;;;;;;;1.88;1.13;;;21.20;63.20;;;;;;4898105;29;20044;-79
2023/08/17 05:08:04;;;;;;;0.90;0.90;;;21.20;63.30;;;;;;4897708;29;20037;-78
2023/08/17 05:10:30;;;;;;;1.30;1.13;;;21.20;63.30;;;;;;4897898;29;20040;-79
2023/08/17 05:12:55;;;;;;;1.00;0.82;;;21.20;63.30;;;;;;4897167;29;20032;-78
2023/08/17 05:15:22;;;;;;;0.82;0.80;;;21.10;63.30;;;;;;4912987;29;20048;-78
2023/08/17 05:17:48;;;;;;;1.10;1.00;;;21.10;63.40;;;;;;4882138;29;20048;-79
2023/08/17 05:20:14;;;;;;;0.85;0.85;;;21.10;63.40;;;;;;4897048;29;20037;-77
2023/08/17 05:22:40;;;;;;;1.45;1.10;;;21.00;63.40;;;;;;4896802;29;20049;-77
2023/08/17 05:25:06;;;;;;;0.80;0.80;;;21.00;63.40;;;;;;4897604;29;20029;-78
2023/08/17 05:27:34;;;;;;;1.25;1.02;;;21.00;63.40;;;;;;4896818;29;20038;-79
2023/08/17 05:30:00;;;;;;;1.23;1.10;;;21.00;63.40;;;;;;4897124;29;20119;-80
2023/08/17 05:32:26;;;;;;;1.27;1.00;;;21.00;63.50;;;;;;4896883;29;20060;-80
2023/08/17 05:34:53;;;;;;;1.08;1.00;;;21.00;63.50;;;;;;4897492;29;20088;-81
2023/08/17 05:37:20;;;;;;;1.92;1.20;;;21.00;63.60;;;;;;4881484;29;20115;-78
2023/08/17 05:39:45;;;;;;;1.13;0.98;;;21.00;63.60;;;;;;4897488;29;20120;-77
2023/08/17 05:42:11;;;;;;;1.52;1.00;;;21.00;63.60;;;;;;4897089;29;20060;-76
2023/08/17 05:44:37;;;;;;;1.13;0.85;;;21.00;63.60;;;;;;4896902;29;20036;-78
2023/08/17 05:47:03;;;;;;;1.42;1.00;;;21.00;63.60;;;;;;4881467;29;20041;-79
2023/08/17 05:49:29;;;;;;;1.13;0.90;;;21.00;63.70;;;;;;4881359;29;20128;-78
2023/08/17 05:51:55;;;;;;;1.75;1.05;;;21.00;63.70;;;;;;4897691;29;20123;-79
2023/08/17 05:54:20;;;;;;;1.20;1.10;;;21.00;63.80;;;;;;4896789;29;20554;-79
2023/08/17 05:56:47;;;;;;;1.48;1.23;;;20.90;63.70;;;;;;4898147;29;20043;-78
2023/08/17 05:59:13;;;;;;;1.23;1.10;;;21.00;63.90;;;;;;4912990;29;20048;-77
2023/08/17 06:01:40;;;;;;;1.25;1.15;;;21.00;63.90;;;;;;4898973;29;20100;-78
2023/08/17 06:04:06;;;;;;;1.38;1.20;;;20.90;63.90;;;;;;4896724;29;20032;-78
2023/08/17 06:06:32;;;;;;;1.52;1.20;;;21.00;63.90;;;;;;4898262;29;20032;-79
2023/08/17 06:08:58;;;;;;;1.65;1.00;;;21.00;63.90;;;;;;4897659;29;20032;-79
2023/08/17 06:11:23;;;;;;;1.40;1.00;;;20.90;63.90;;;;;;4896925;29;20386;-78
2023/08/17 06:13:49;;;;;;;1.10;1.00;;;21.00;63.90;;;;;;4897300;29;20386;-78
2023/08/17 06:16:16;;;;;;;1.15;0.95;;;20.90;63.90;;;;;;4913137;29;20381;-79
2023/08/17 06:18:42;;;;;;;1.17;0.90;;;21.00;64.00;;;;;;4912175;29;20056;-79
2023/08/17 06:21:08;;;;;;;0.80;0.80;;;21.00;64.00;;;;;;4880934;29;20032;-78
2023/08/17 06:23:34;;;;;;;1.48;1.10;;;21.00;64.10;;;;;;4884443;29;20036;-78
2023/08/17 06:26:00;;;;;;;1.45;0.95;;;21.00;64.10;;;;;;4899998;29;20032;-78
2023/08/17 06:28:26;;;;;;;1.73;1.20;;;21.00;64.10;;;;;;4884383;29;20443;-78
2023/08/17 06:30:54;;;;;;;1.80;0.90;;;21.00;64.10;;;;;;4901109;29;20032;-79
2023/08/17 06:33:20;;;;;;;1.52;1.00;;;21.00;64.20;;;;;;4900793;29;20044;-79
2023/08/17 06:35:45;;;;;;;1.52;1.00;;;21.00;64.10;;;;;;4899799;29;20029;-79
2023/08/17 06:38:11;;;;;;;1.23;0.82;;;21.00;64.10;;;;;;4900767;29;20033;-79
2023/08/17 06:40:38;;;;;;;1.02;0.93;;;21.00;64.10;;;;;;4884033;29;20096;-78
2023/08/17 06:43:04;;;;;;;2.75;1.38;;;21.00;64.20;;;;;;4915383;29;20478;-78
2023/08/17 06:45:32;;;;;;;1.65;1.02;;;21.00;64.10;;;;;;4899906;29;20123;-79
2023/08/17 06:47:58;;;;;;;1.00;1.00;;;21.00;64.20;;;;;;4899561;29;20084;-78
2023/08/17 06:50:24;;;;;;;1.35;0.98;;;21.10;64.20;;;;;;4915223;29;20427;-78
2023/08/17 06:52:49;;;;;;;1.00;0.90;;;21.10;64.20;;;;;;4900355;29;20084;-78
2023/08/17 06:55:16;;;;;;;1.20;1.10;;;21.10;64.20;;;;;;4899482;29;20119;-78
2023/08/17 06:57:42;;;;;;;2.75;1.23;;;21.10;64.20;;;;;;4899134;29;20474;-78
2023/08/17 07:00:08;;;;;;;1.77;1.20;;;21.10;64.20;;;;;;4899323;29;20064;-79
2023/08/17 07:02:34;;;;;;;1.70;0.98;;;21.10;64.20;;;;;;4884144;29;20470;-79
2023/08/17 07:05:00;;;;;;;1.42;1.10;;;21.10;64.30;;;;;;4899325;29;20040;-79
2023/08/17 07:07:26;;;;;;;1.23;1.10;;;21.10;64.20;;;;;;4883691;29;20040;-79
2023/08/17 07:09:52;;;;;;;1.27;1.17;;;21.10;64.20;;;;;;4915646;29;20033;-79
2023/08/17 07:12:19;;;;;;;2.15;1.20;;;21.10;64.20;;;;;;4898881;29;20047;-80
2023/08/17 07:14:45;;;;;;;1.38;1.10;;;21.10;64.20;;;;;;4883753;29;20044;-78
2023/08/17 07:17:10;;;;;;;2.50;1.13;;;21.20;64.30;;;;;;4883791;29;20033;-80
2023/08/17 07:19:36;;;;;;;1.48;1.00;;;21.20;64.30;;;;;;4898995;29;20127;-80
2023/08/17 07:22:02;;;;;;;2.08;1.13;;;21.20;64.30;;;;;;4898926;29;20067;-79
2023/08/17 07:24:28;;;;;;;0.98;0.80;;;21.20;64.30;;;;;;4900387;29;20044;-78
2023/08/17 07:26:54;;;;;;;1.42;1.10;;;21.20;64.30;;;;;;4900706;29;20035;-78
2023/08/17 07:29:19;;;;;;;1.48;1.00;;;21.20;64.30;;;;;;4884146;29;20036;-78
2023/08/17 07:31:45;;;;;;;1.52;1.10;;;21.30;64.30;;;;;;4883033;29;20047;-78
2023/08/17 07:34:11;;;;;;;1.15;0.90;;;21.20;64.30;;;;;;4899332;29;20462;-78
2023/08/17 07:36:37;;;;;;;0.88;0.88;;;21.30;64.40;;;;;;4914849;29;20063;-79
2023/08/17 07:39:04;;;;;;;1.25;1.10;;;21.30;64.30;;;;;;4898804;29;20097;-80
2023/08/17 07:41:30;;;;;;;1.75;1.00;;;21.30;64.40;;;;;;4899081;29;20528;-81
2023/08/17 07:43:56;;;;;;;1.65;1.00;;;21.30;64.30;;;;;;4898907;29;20052;-78
2023/08/17 07:46:21;;;;;;;1.85;0.90;;;21.40;64.30;;;;;;4884450;29;20037;-84
2023/08/17 07:48:47;;;;;;;1.30;1.20;;;21.40;64.30;;;;;;4899438;29;20061;-81
2023/08/17 07:51:13;;;;;;;1.10;1.00;;;21.40;64.30;;;;;;4898686;29;20116;-80
2023/08/17 07:53:39;;;;;;;1.42;1.10;;;21.40;64.30;;;;;;4899391;29;20037;-80
2023/08/17 07:56:05;;;;;;;1.58;1.13;;;21.40;64.30;;;;;;4913650;29;20176;-80
2023/08/17 07:58:31;;;;;;;2.00;1.20;;;21.40;64.30;;;;;;4898297;29;20131;-80
2023/08/17 08:00:57;;;;;;;1.38;1.17;;;21.40;64.30;;;;;;4898057;29;20047;-80
2023/08/17 08:03:22;;;;;;;1.55;1.10;;;21.50;64.30;;;;;;4898564;29;20031;-83
2023/08/17 08:05:48;;;;;;;1.50;1.05;;;21.50;64.30;;;;;;4867180;29;20426;-80
2023/08/17 08:08:14;;;;;;;1.45;1.10;;;21.50;64.30;;;;;;4898183;29;20134;-81
2023/08/17 08:10:40;;;;;;;1.15;1.05;;;21.50;64.30;;;;;;4898538;29;20477;-79
2023/08/17 08:13:06;;;;;;;2.33;1.30;;;21.50;64.30;;;;;;4913477;29;20044;-80
2023/08/17 08:15:33;;;;;;;1.00;0.90;;;21.50;64.30;;;;;;4883361;29;20037;-80
2023/08/17 08:17:59;;;;;;;2.47;1.25;;;21.60;64.40;;;;;;4913960;29;20033;-79
2023/08/17 08:20:25;;;;;;;1.08;0.80;;;21.60;64.40;;;;;;4913631;29;20375;-80
2023/08/17 08:22:51;;;;;;;1.90;1.10;;;21.60;64.30;;;;;;4897676;29;20356;-79
2023/08/17 08:25:16;;;;;;;1.45;1.00;;;21.60;64.30;;;;;;4897623;29;20454;-79
2023/08/17 08:27:42;;;;;;;1.25;1.02;;;21.60;64.30;;;;;;4913358;29;20469;-80
2023/08/17 08:30:08;;;;;;;1.67;1.40;;;21.60;64.30;;;;;;4898096;29;20490;-79
2023/08/17 08:32:34;;;;;;;1.67;1.13;;;21.60;64.30;;;;;;4897729;29;20068;-80
2023/08/17 08:35:00;;;;;;;1.75;1.38;;;21.60;64.30;;;;;;4882203;29;20048;-80
2023/08/17 08:37:26;;;;;;;1.38;1.00;;;21.60;64.30;;;;;;4882536;29;20562;-83
2023/08/17 08:39:53;;;;;;;1.73;1.05;;;21.60;64.30;;;;;;4897608;29;20403;-79
2023/08/17 08:42:20;;;;;;;1.42;1.10;;;21.70;64.30;;;;;;4897508;29;20087;-81
2023/08/17 08:44:46;;;;;;;1.60;1.10;;;21.70;64.30;;;;;;4897139;29;20490;-80
2023/08/17 08:47:13;;;;;;;1.58;1.23;;;21.70;64.30;;;;;;4897798;29;20050;-79
2023/08/17 08:49:55;;;;;;;1.65;1.20;;;21.70;64.30;;;;;;4897435;29;20028;-79
2023/08/17 08:52:26;;;;;;;1.30;1.15;;;21.70;64.40;;;;;;4898149;29;20044;-80
2023/08/17 08:54:56;;;;;;;2.03;1.10;;;21.70;64.30;;;;;;4897561;29;20088;-79
2023/08/17 08:57:22;;;;;;;1.10;1.00;;;21.80;64.30;;;;;;4898372;29;20101;-79
2023/08/17 08:59:48;;;;;;;1.10;1.00;;;21.70;64.20;;;;;;4898337;29;20051;-81
2023/08/17 09:02:16;;;;;;;2.25;1.23;;;21.70;64.20;;;;;;4913083;29;20079;-80
2023/08/17 09:04:45;;;;;;;1.55;1.25;;;21.80;64.30;;;;;;4898862;29;20041;-81
2023/08/17 09:07:16;;;;;;;2.35;1.13;;;21.80;64.30;;;;;;4897580;29;20029;-80
2023/08/17 09:09:44;;;;;;;1.27;1.08;;;21.80;64.30;;;;;;4897386;29;20067;-80
2023/08/17 09:12:10;;;;;;;1.50;1.20;;;21.80;64.30;;;;;;4882042;29;20063;-81
2023/08/17 09:14:37;;;;;;;1.33;1.23;;;21.80;64.20;;;;;;4897070;29;20066;-82
2023/08/17 09:17:03;;;;;;;1.42;1.25;;;21.80;64.20;;;;;;4898085;29;20041;-78
2023/08/17 09:19:32;;;;;;;3.08;1.90;;;21.80;64.20;;;;;;4897383;29;20037;-84
2023/08/17 09:21:58;;;;;;;1.45;1.33;;;21.80;64.20;;;;;;4898636;29;20045;-82
2023/08/17 09:24:23;;;;;;;2.22;1.33;;;21.90;64.30;;;;;;4881281;29;20376;-81
2023/08/17 09:26:50;;;;;;;2.00;1.30;;;21.80;64.20;;;;;;4898624;29;20068;-81
2023/08/17 09:29:20;;;;;;;1.80;1.38;;;21.90;64.30;;;;;;4881416;29;20029;-81
2023/08/17 09:31:46;;;;;;;3.65;1.40;;;21.90;64.30;;;;;;4897196;29;20033;-81
2023/08/17 09:34:15;;;;;;;2.15;1.40;;;21.90;64.20;;;;;;4897115;29;20037;-81
2023/08/17 09:36:41;;;;;;;2.55;1.60;;;21.90;64.20;;;;;;4881716;29;20066;-82
2023/08/17 09:39:08;;;;;;;1.40;1.30;;;21.90;64.20;;;;;;4896996;29;20072;-81
2023/08/17 09:41:40;;;;;;;3.08;1.60;;;21.90;64.20;;;;;;4896745;29;20089;-81
2023/08/17 09:44:07;;;;;;;2.53;1.60;;;21.90;64.20;;;;;;4881524;29;20108;-80
2023/08/17 09:46:33;;;;;;;2.20;1.42;;;22.00;64.20;;;;;;4897247;29;20037;-81
2023/08/17 09:48:58;;;;;;;2.97;1.55;;;22.00;64.20;;;;;;4897613;29;20131;-81
2023/08/17 09:51:25;;;;;;;2.03;1.40;;;22.00;64.20;;;;;;4897217;29;20040;-81
2023/08/17 09:53:53;;;;;;;2.55;1.83;;;22.00;64.20;;;;;;4881820;29;20044;-80
2023/08/17 09:56:23;;;;;;;1.98;1.52;;;22.00;64.20;;;;;;4881791;29;20036;-81
2023/08/17 09:58:49;;;;;;;3.65;1.58;;;22.00;64.20;;;;;;4884519;29;20492;-81
2023/08/17 10:01:15;;;;;;;2.58;1.48;;;22.10;64.20;;;;;;4900438;29;20064;-81
2023/08/17 10:03:45;;;;;;;3.40;1.90;;;22.10;64.10;;;;;;4916862;29;20039;-81
2023/08/17 10:06:13;;;;;;;2.15;1.60;;;22.10;64.20;;;;;;4900691;29;20119;-80
2023/08/17 10:08:45;;;;;;;3.63;1.70;;;22.10;64.10;;;;;;4900044;29;20056;-80
2023/08/17 10:11:14;;;;;;;3.28;1.85;;;22.10;64.20;;;;;;4916454;29;20028;-80
2023/08/17 10:13:47;;;;;;;3.60;2.03;;;22.10;64.10;;;;;;4900498;29;20028;-80
2023/08/17 10:16:33;;;;;;;3.30;1.73;;;22.20;64.20;;;;;;4900866;29;20029;-81
2023/08/17 10:19:19;;;;;;;3.50;1.83;;;22.20;64.20;;;;;;4903584;29;20060;-80
2023/08/17 10:21:50;;;;;;;3.03;1.73;;;22.20;64.30;;;;;;4919220;29;20043;-79
2023/08/17 10:24:18;;;;;;;2.67;1.80;;;22.20;64.10;;;;;;4903718;29;20048;-81
2023/08/17 10:26:46;;;;;;;3.10;1.80;;;22.20;64.10;;;;;;4889452;29;20036;-80
2023/08/17 10:29:12;;;;;;;4.63;1.70;;;22.20;64.10;;;;;;4906553;29;20164;-80
2023/08/17 10:31:38;;;;;;;3.42;1.90;;;22.30;64.20;;;;;;4905913;29;20028;-80
2023/08/17 10:34:04;;;;;;;3.90;1.90;;;22.30;64.20;;;;;;4901898;29;20089;-81
2023/08/17 10:36:34;;;;;;;2.58;1.60;;;22.30;64.20;;;;;;4915650;29;20123;-79
2023/08/17 10:39:18;;;;;;;2.75;1.75;;;22.30;64.20;;;;;;4899788;29;20110;-82
2023/08/17 10:41:49;;;;;;;2.65;1.70;;;22.30;64.20;;;;;;4915348;29;20055;-80
2023/08/17 10:44:17;;;;;;;2.92;1.85;;;22.40;64.20;;;;;;4899945;29;20124;-80
2023/08/17 10:46:45;;;;;;;3.03;1.95;;;22.40;64.20;;;;;;4900732;29;20091;-80
2023/08/17 10:49:27;;;;;;;2.15;1.77;;;22.40;64.10;;;;;;4884529;29;20033;-81
2023/08/17 10:52:03;;;;;;;2.63;1.90;;;22.40;64.20;;;;;;4899296;29;20435;-80
2023/08/17 10:54:39;;;;;;;3.55;2.10;;;22.40;64.20;;;;;;4900562;29;20063;-80
2023/08/17 10:57:28;;;;;;;3.15;2.22;;;22.40;64.20;;;;;;4901430;29;20062;-80
2023/08/17 11:00:13;;;;;;;3.15;1.92;;;22.50;64.20;;;;;;4899277;29;20036;-80
2023/08/17 11:02:39;;;;;;;3.33;2.05;;;22.50;64.20;;;;;;4899350;29;20032;-80
2023/08/17 11:05:07;;;;;;;3.22;2.00;;;22.50;64.10;;;;;;4899317;29;20050;-81
2023/08/17 11:07:45;;;;;;;3.65;2.08;;;22.50;64.10;;;;;;4899139;29;20394;-80
2023/08/17 11:10:12;;;;;;;4.07;2.00;;;22.60;64.20;;;;;;4899133;29;20044;-81
2023/08/17 11:12:40;;;;;;;2.90;2.00;;;22.60;64.10;;;;;;4898864;29;20430;-83
2023/08/17 11:15:07;;;;;;;3.25;1.83;;;22.60;64.10;;;;;;4883610;29;20063;-80
2023/08/17 11:17:33;;;;;;;3.10;1.95;;;22.60;64.10;;;;;;4914814;29;20145;-79
2023/08/17 11:19:58;;;;;;;3.92;2.15;;;22.60;64.00;;;;;;4898879;29;20104;-80
2023/08/17 11:22:24;;;;;;;3.72;2.05;;;22.70;64.00;;;;;;4898835;29;20172;-79
2023/08/17 11:24:51;;;;;;;3.78;2.15;;;22.70;64.00;;;;;;4899621;29;20366;-80
2023/08/17 11:27:18;;;;;;;3.53;1.83;;;22.80;64.00;;;;;;4898779;29;20044;-81
2023/08/17 11:29:44;;;;;;;3.28;2.00;;;22.80;64.00;;;;;;4898767;29;20112;-79
2023/08/17 11:32:11;;;;;;;3.63;2.25;;;22.80;63.90;;;;;;4899058;29;20044;-79
2023/08/17 11:34:37;;;;;;;3.50;2.20;;;22.90;63.90;;;;;;4883440;29;20043;-81
2023/08/17 11:37:04;;;;;;;2.75;1.88;;;22.80;63.90;;;;;;4899038;29;20029;-79
2023/08/17 11:39:36;;;;;;;4.68;2.22;;;22.90;63.90;;;;;;4900654;29;20048;-78
2023/08/17 11:42:02;;;;;;;3.33;2.08;;;22.90;63.90;;;;;;4898776;29;20133;-77
2023/08/17 11:44:28;;;;;;;3.25;1.95;;;22.90;63.90;;;;;;4898660;29;20140;-78
2023/08/17 11:46:53;;;;;;;3.13;1.85;;;23.00;63.80;;;;;;4898507;29;20044;-81
2023/08/17 11:49:19;;;;;;;3.00;2.08;;;23.00;63.80;;;;;;4898399;29;20375;-77
2023/08/17 11:51:45;;;;;;;2.47;1.73;;;23.00;63.80;;;;;;4898231;29;20411;-80
2023/08/17 11:54:11;;;;;;;3.00;2.00;;;23.00;63.80;;;;;;4883348;29;20451;-80
2023/08/17 11:56:37;;;;;;;2.92;2.10;;;23.00;63.70;;;;;;4898392;29;20382;-81
2023/08/17 11:59:22;;;;;;;2.58;1.75;;;23.00;63.60;;;;;;4882817;29;20048;-81
2023/08/17 12:01:49;;;;;;;2.63;2.00;;;23.10;63.70;;;;;;4914639;29;20069;-79
2023/08/17 12:04:15;;;;;;;2.92;1.98;;;23.10;63.60;;;;;;4913969;29;20054;-79
2023/08/17 12:06:45;;;;;;;3.65;2.10;;;23.20;63.70;;;;;;4897982;29;20422;-79
2023/08/17 12:09:13;;;;;;;2.22;1.70;;;23.10;63.60;;;;;;4898523;29;20059;-81
2023/08/17 12:11:39;;;;;;;3.38;2.08;;;23.10;63.60;;;;;;4898032;29;20087;-82
2023/08/17 12:14:10;;;;;;;3.10;1.98;;;23.10;63.50;;;;;;4897777;29;20036;-82
2023/08/17 12:16:47;;;;;;;2.95;1.75;;;23.20;63.60;;;;;;4898431;29;20084;-81
2023/08/17 12:19:13;;;;;;;1.90;1.65;;;23.20;63.60;;;;;;4897339;29;20112;-81
2023/08/17 12:21:41;;;;;;;3.72;2.20;;;23.20;63.60;;;;;;4882208;29;20151;-79
2023/08/17 12:24:09;;;;;;;3.13;1.90;;;23.20;63.60;;;;;;4913878;29;20493;-78
2023/08/17 12:26:35;;;;;;;2.42;1.73;;;23.20;63.60;;;;;;4897698;29;20048;-79
2023/08/17 12:29:05;;;;;;;3.25;1.90;;;23.20;63.60;;;;;;4897854;29;20382;-80
2023/08/17 12:31:31;;;;;;;2.90;1.95;;;23.30;63.60;;;;;;4899323;29;20024;-79
2023/08/17 12:33:57;;;;;;;3.08;2.03;;;23.20;63.60;;;;;;4899080;29;20037;-79
2023/08/17 12:36:22;;;;;;;3.95;2.15;;;23.30;63.60;;;;;;4882463;29;20048;-79
2023/08/17 12:38:48;;;;;;;2.92;1.90;;;23.30;63.60;;;;;;4898072;29;20366;-78
2023/08/17 12:41:14;;;;;;;3.47;2.10;;;23.30;63.60;;;;;;4897836;29;20033;-79
2023/08/17 12:43:40;;;;;;;2.78;1.95;;;23.30;64.20;;;;;;4897236;29;20471;-78
2023/08/17 12:46:06;;;;;;;2.58;2.05;;;23.30;63.60;;;;;;4897829;29;20118;-80
2023/08/17 12:48:31;;;;;;;2.85;1.90;;;23.30;63.60;;;;;;4897819;29;20032;-78